Time;durP1;ratioP1;P1;durP2;ratioP2;P2;SDS_P1;SDS_P2;PMS_P1;PMS_P2;Temp;Humidity;BMP_temperature;BMP_pressure;BME280_temperature;BME280_humidity;BME280_pressure;Samples;Min_cycle;Max_cycle;Signal;HPM_P1;HPM_P2
2024/03/12 00:01:26;;;;;;;1.20;1.08;;;21.10;69.00;;;;;;4972871;28;20228;-72
2024/03/12 00:03:54;;;;;;;1.50;1.30;;;21.10;69.00;;;;;;4977538;28;20283;-73
2024/03/12 00:06:21;;;;;;;1.02;0.85;;;21.10;69.00;;;;;;4971359;28;21198;-73
2024/03/12 00:08:48;;;;;;;1.30;1.20;;;21.10;69.00;;;;;;4975865;28;20201;-73
2024/03/12 00:11:15;;;;;;;1.30;1.20;;;21.00;68.90;;;;;;4978439;28;20205;-72
2024/03/12 00:13:43;;;;;;;2.03;1.10;;;21.00;68.90;;;;;;4977396;28;20208;-72
2024/03/12 00:16:10;;;;;;;1.92;1.30;;;21.00;69.00;;;;;;4976875;28;20468;-72
2024/03/12 00:18:36;;;;;;;1.15;1.00;;;21.00;69.00;;;;;;4973718;28;20200;-72
2024/03/12 00:21:04;;;;;;;1.38;1.20;;;21.00;69.00;;;;;;4982656;28;20196;-72
2024/03/12 00:23:31;;;;;;;1.23;1.10;;;21.00;69.00;;;;;;4981415;28;20204;-72
2024/03/12 00:25:57;;;;;;;1.20;1.10;;;21.00;69.00;;;;;;4980170;28;20197;-72
2024/03/12 00:28:24;;;;;;;1.00;0.80;;;21.00;68.90;;;;;;4980628;28;20212;-72
2024/03/12 00:30:53;;;;;;;1.45;1.13;;;21.00;68.90;;;;;;4975402;28;20193;-72
2024/03/12 00:33:20;;;;;;;2.85;1.10;;;21.00;68.90;;;;;;4977908;28;20208;-72
2024/03/12 00:35:47;;;;;;;1.20;1.10;;;21.00;69.00;;;;;;4979415;28;20741;-72
2024/03/12 00:38:15;;;;;;;1.30;1.10;;;21.00;69.00;;;;;;4985632;28;20200;-72
2024/03/12 00:40:42;;;;;;;1.10;1.00;;;20.90;69.00;;;;;;4982454;28;20617;-72
2024/03/12 00:43:09;;;;;;;1.00;0.88;;;20.90;69.00;;;;;;4977507;28;20231;-72
2024/03/12 00:45:38;;;;;;;1.70;0.90;;;20.90;69.00;;;;;;4978730;28;20549;-72
2024/03/12 00:48:09;;;;;;;1.30;1.08;;;20.80;68.80;;;;;;4983251;28;20207;-72
2024/03/12 00:50:36;;;;;;;1.23;1.00;;;21.00;69.20;;;;;;4980112;28;20224;-72
2024/03/12 00:53:03;;;;;;;1.30;0.95;;;20.90;69.00;;;;;;4972523;28;20215;-72
2024/03/12 00:55:30;;;;;;;1.58;1.27;;;20.90;69.00;;;;;;4985350;28;20197;-72
2024/03/12 00:57:58;;;;;;;2.47;1.05;;;20.90;69.10;;;;;;4985266;28;20204;-72
2024/03/12 01:00:26;;;;;;;1.00;0.90;;;20.90;69.00;;;;;;4984921;28;20197;-72
2024/03/12 01:02:54;;;;;;;1.80;1.15;;;20.90;69.20;;;;;;4981774;28;20338;-71
2024/03/12 01:05:25;;;;;;;1.27;1.00;;;20.80;69.20;;;;;;4983664;28;20196;-71
2024/03/12 01:07:53;;;;;;;1.25;1.10;;;20.80;69.30;;;;;;4978613;28;21906;-71
2024/03/12 01:10:21;;;;;;;1.10;0.90;;;20.80;69.30;;;;;;4981983;28;20196;-70
2024/03/12 01:12:48;;;;;;;1.20;0.90;;;20.80;69.30;;;;;;4979571;28;20571;-69
2024/03/12 01:15:15;;;;;;;1.45;1.13;;;20.80;69.30;;;;;;4979026;28;20202;-69
2024/03/12 01:17:44;;;;;;;1.17;0.95;;;20.80;69.50;;;;;;4986525;28;20625;-67
2024/03/12 01:20:11;;;;;;;1.20;1.10;;;20.80;69.30;;;;;;4987891;28;20787;-68
2024/03/12 01:22:39;;;;;;;1.35;1.00;;;20.80;69.40;;;;;;4987341;28;20783;-68
2024/03/12 01:25:07;;;;;;;1.10;0.95;;;20.80;69.40;;;;;;4986458;28;20208;-69
2024/03/12 01:27:34;;;;;;;1.58;1.15;;;20.80;69.50;;;;;;4983034;28;20216;-68
2024/03/12 01:30:06;;;;;;;1.02;0.90;;;20.80;69.60;;;;;;4983053;28;20817;-69
2024/03/12 01:32:33;;;;;;;1.67;1.00;;;20.80;69.50;;;;;;4983362;28;20205;-68
2024/03/12 01:34:59;;;;;;;1.15;0.90;;;20.80;69.40;;;;;;4980356;28;20244;-68
2024/03/12 01:37:26;;;;;;;1.20;0.90;;;20.80;69.60;;;;;;4980728;28;20204;-68
2024/03/12 01:39:54;;;;;;;1.23;0.93;;;20.70;69.50;;;;;;4981661;28;20201;-69
2024/03/12 01:42:21;;;;;;;1.38;1.20;;;20.70;69.70;;;;;;4979844;28;20222;-68
2024/03/12 01:44:50;;;;;;;1.65;1.23;;;20.70;69.60;;;;;;4980372;28;20596;-68
2024/03/12 01:47:17;;;;;;;1.50;1.30;;;20.70;69.70;;;;;;4976929;28;20407;-69
2024/03/12 01:49:44;;;;;;;1.20;0.90;;;20.70;69.80;;;;;;4981250;28;20201;-68
2024/03/12 01:52:10;;;;;;;1.10;1.00;;;20.70;69.60;;;;;;4978624;28;20780;-68
2024/03/12 01:54:37;;;;;;;1.83;1.10;;;20.70;69.60;;;;;;4978509;28;20217;-68
2024/03/12 01:57:06;;;;;;;1.20;1.08;;;20.70;69.80;;;;;;4980232;28;20826;-68
2024/03/12 01:59:34;;;;;;;1.30;1.05;;;20.70;69.60;;;;;;4983748;28;20227;-69
2024/03/12 02:02:01;;;;;;;1.30;1.00;;;20.70;69.70;;;;;;4980217;28;20366;-67
2024/03/12 02:04:28;;;;;;;1.55;1.20;;;20.70;69.90;;;;;;4979090;28;20208;-67
2024/03/12 02:06:55;;;;;;;1.20;1.10;;;20.70;69.90;;;;;;4983766;28;20620;-69
2024/03/12 02:09:22;;;;;;;1.10;0.80;;;20.70;69.90;;;;;;4988839;28;20717;-69
2024/03/12 02:11:50;;;;;;;1.30;1.00;;;20.60;69.80;;;;;;4986507;28;20577;-68
2024/03/12 02:14:18;;;;;;;1.30;1.00;;;20.60;69.80;;;;;;4985920;28;20208;-67
2024/03/12 02:16:46;;;;;;;1.20;1.00;;;20.60;69.70;;;;;;4977608;28;20657;-68
2024/03/12 02:19:13;;;;;;;1.60;1.50;;;20.60;69.80;;;;;;4979911;28;20197;-68
2024/03/12 02:21:39;;;;;;;1.10;0.93;;;20.60;69.80;;;;;;4981404;28;20236;-68
2024/03/12 02:24:08;;;;;;;1.90;1.00;;;20.60;69.80;;;;;;4979834;28;20236;-68
2024/03/12 02:26:34;;;;;;;1.10;0.90;;;20.60;69.80;;;;;;4975143;28;20200;-67
2024/03/12 02:29:01;;;;;;;1.45;1.20;;;20.60;69.90;;;;;;4977353;28;20194;-68
2024/03/12 02:31:28;;;;;;;1.38;0.90;;;20.60;69.80;;;;;;4977287;28;20208;-68
2024/03/12 02:33:56;;;;;;;1.00;0.90;;;20.60;70.00;;;;;;4978736;28;20253;-69
2024/03/12 02:36:23;;;;;;;1.77;1.00;;;20.60;69.80;;;;;;4980053;28;20219;-68
2024/03/12 02:38:50;;;;;;;1.30;1.00;;;20.60;69.80;;;;;;4980142;28;20212;-67
2024/03/12 02:41:21;;;;;;;1.00;0.90;;;20.60;69.90;;;;;;4976649;28;20193;-68
2024/03/12 02:43:48;;;;;;;1.20;0.93;;;20.60;70.00;;;;;;4980220;28;20318;-68
2024/03/12 02:46:15;;;;;;;1.38;1.00;;;20.60;70.00;;;;;;4979853;28;20581;-67
2024/03/12 02:48:42;;;;;;;1.25;0.98;;;20.60;69.80;;;;;;4975953;28;20657;-68
2024/03/12 02:51:10;;;;;;;1.20;1.00;;;20.60;69.90;;;;;;4975634;28;20416;-69
2024/03/12 02:53:37;;;;;;;1.17;1.00;;;20.60;69.90;;;;;;4977813;28;20201;-68
2024/03/12 02:56:04;;;;;;;1.30;1.05;;;20.60;69.90;;;;;;4978436;28;20193;-67
2024/03/12 02:58:32;;;;;;;1.23;1.13;;;20.50;69.70;;;;;;4977787;28;20205;-68
2024/03/12 03:00:59;;;;;;;1.20;0.90;;;20.50;70.50;;;;;;4978481;28;20485;-68
2024/03/12 03:03:27;;;;;;;1.00;0.80;;;20.50;69.80;;;;;;4978075;28;20229;-68
2024/03/12 03:05:54;;;;;;;1.17;0.80;;;20.30;69.60;;;;;;4978760;28;20682;-68
2024/03/12 03:08:20;;;;;;;1.55;1.30;;;20.50;69.90;;;;;;4972477;28;20204;-68
2024/03/12 03:10:47;;;;;;;1.20;1.10;;;20.50;69.80;;;;;;4979028;28;20204;-67
2024/03/12 03:13:13;;;;;;;1.30;1.15;;;20.50;69.90;;;;;;4982807;28;20213;-67
2024/03/12 03:15:41;;;;;;;1.10;1.00;;;20.50;69.80;;;;;;4980568;28;20204;-68
2024/03/12 03:18:08;;;;;;;1.10;0.90;;;20.50;69.80;;;;;;4978572;28;20945;-67
2024/03/12 03:20:35;;;;;;;1.15;0.90;;;20.50;69.90;;;;;;4976554;28;20209;-67
2024/03/12 03:23:01;;;;;;;1.40;1.10;;;20.50;70.00;;;;;;4979427;28;20220;-67
2024/03/12 03:25:28;;;;;;;1.10;0.90;;;20.50;70.10;;;;;;4982107;28;20205;-68
2024/03/12 03:27:55;;;;;;;1.10;0.88;;;20.40;69.90;;;;;;4983719;28;20204;-68
2024/03/12 03:30:22;;;;;;;1.17;1.00;;;20.50;69.90;;;;;;4978325;28;20608;-68
2024/03/12 03:32:50;;;;;;;1.20;0.93;;;20.50;70.00;;;;;;4981849;28;20464;-67
2024/03/12 03:35:17;;;;;;;1.20;1.00;;;20.50;69.80;;;;;;4975710;28;20201;-67
2024/03/12 03:37:44;;;;;;;1.92;1.08;;;20.40;69.80;;;;;;4979625;28;20244;-68
2024/03/12 03:40:22;;;;;;;1.20;1.00;;;20.40;69.80;;;;;;4974953;28;20718;-68
2024/03/12 03:42:49;;;;;;;1.20;1.00;;;20.40;69.80;;;;;;4977787;28;20279;-67
2024/03/12 03:45:16;;;;;;;1.17;0.90;;;20.40;69.90;;;;;;4975236;28;22168;-68
2024/03/12 03:47:42;;;;;;;1.35;1.23;;;20.40;69.80;;;;;;4975909;28;20201;-68
2024/03/12 03:50:11;;;;;;;1.10;0.90;;;20.40;69.90;;;;;;4975455;28;20201;-67
2024/03/12 03:52:38;;;;;;;1.30;1.10;;;20.40;69.90;;;;;;4979639;28;20208;-68
2024/03/12 03:55:06;;;;;;;1.23;1.13;;;20.40;69.70;;;;;;4974779;28;20267;-68
2024/03/12 03:57:33;;;;;;;0.90;0.70;;;20.40;69.80;;;;;;4982525;28;20205;-68
2024/03/12 04:00:12;;;;;;;1.40;1.30;;;20.20;69.70;;;;;;4979124;28;20201;-68
2024/03/12 04:02:39;;;;;;;1.20;1.00;;;20.40;69.80;;;;;;4985898;28;20244;-67
2024/03/12 04:05:07;;;;;;;1.30;1.20;;;20.40;69.80;;;;;;4980776;28;20780;-67
2024/03/12 04:07:36;;;;;;;1.30;1.02;;;20.40;69.70;;;;;;4982090;28;20212;-68
2024/03/12 04:10:03;;;;;;;2.00;1.13;;;20.40;69.80;;;;;;4985231;28;20200;-69
2024/03/12 04:12:30;;;;;;;1.20;1.00;;;20.40;69.90;;;;;;4986595;28;20297;-68
2024/03/12 04:14:58;;;;;;;1.40;1.00;;;20.40;69.70;;;;;;4981696;28;20217;-67
2024/03/12 04:17:24;;;;;;;1.20;1.00;;;20.40;69.70;;;;;;4984359;28;20296;-67
2024/03/12 04:19:51;;;;;;;1.20;1.00;;;20.40;69.90;;;;;;4982332;28;20748;-68
2024/03/12 04:22:19;;;;;;;1.10;0.95;;;20.30;69.70;;;;;;4982764;28;20200;-67
2024/03/12 04:24:47;;;;;;;1.50;1.10;;;20.40;69.90;;;;;;4983403;28;20208;-69
2024/03/12 04:27:14;;;;;;;1.58;1.40;;;20.40;69.90;;;;;;4982175;28;21852;-69
2024/03/12 04:29:41;;;;;;;1.10;1.00;;;20.30;69.70;;;;;;4984308;28;20228;-67
2024/03/12 04:32:09;;;;;;;1.10;0.90;;;20.30;69.80;;;;;;4989841;28;20235;-68
2024/03/12 04:34:37;;;;;;;1.58;1.15;;;20.30;69.70;;;;;;4979929;28;20201;-68
2024/03/12 04:37:04;;;;;;;1.25;1.10;;;20.40;70.00;;;;;;4978668;28;20910;-68
2024/03/12 04:39:31;;;;;;;1.27;1.17;;;20.30;69.70;;;;;;4981499;28;20324;-67
2024/03/12 04:42:04;;;;;;;1.33;1.00;;;20.30;69.80;;;;;;4982106;28;20706;-67
2024/03/12 04:44:31;;;;;;;1.25;1.00;;;20.30;69.80;;;;;;4977473;28;20224;-67
2024/03/12 04:46:58;;;;;;;1.30;1.00;;;20.30;69.80;;;;;;4976232;28;20201;-67
2024/03/12 04:49:25;;;;;;;1.30;1.20;;;20.20;69.70;;;;;;4986064;28;20292;-67
2024/03/12 04:51:52;;;;;;;1.40;1.20;;;20.30;70.00;;;;;;4978859;28;20752;-67
2024/03/12 04:54:19;;;;;;;1.00;0.80;;;20.30;69.70;;;;;;4978590;28;20200;-68
2024/03/12 04:56:45;;;;;;;1.20;1.00;;;20.30;69.70;;;;;;4984616;28;20189;-68
2024/03/12 04:59:14;;;;;;;1.10;1.00;;;20.30;69.70;;;;;;4981210;28;20196;-67
2024/03/12 05:01:41;;;;;;;1.10;0.90;;;20.30;69.80;;;;;;4975735;28;20200;-68
2024/03/12 05:04:08;;;;;;;1.25;1.05;;;20.30;69.70;;;;;;4983614;28;20231;-67
2024/03/12 05:06:35;;;;;;;1.10;1.00;;;20.30;69.70;;;;;;4976668;28;20202;-68
2024/03/12 05:09:01;;;;;;;1.20;1.10;;;20.30;69.80;;;;;;4979610;28;20201;-68
2024/03/12 05:11:28;;;;;;;1.10;0.95;;;20.30;69.70;;;;;;4979993;28;20192;-68
2024/03/12 05:13:55;;;;;;;1.40;1.17;;;20.30;69.90;;;;;;4984184;28;20216;-67
2024/03/12 05:16:26;;;;;;;1.00;0.80;;;20.30;70.00;;;;;;4978310;28;20219;-68
2024/03/12 05:18:53;;;;;;;1.10;0.90;;;20.30;70.00;;;;;;4963694;28;20228;-68
2024/03/12 05:21:21;;;;;;;1.30;1.00;;;20.20;69.80;;;;;;4982886;28;20223;-68
2024/03/12 05:23:48;;;;;;;1.20;1.02;;;20.20;69.90;;;;;;4985152;28;21031;-67
2024/03/12 05:26:17;;;;;;;1.20;1.00;;;20.20;69.80;;;;;;4983706;28;20204;-68
2024/03/12 05:28:44;;;;;;;1.40;1.30;;;20.20;69.70;;;;;;4984550;28;20231;-67
2024/03/12 05:31:20;;;;;;;1.00;0.80;;;20.30;69.90;;;;;;4979925;28;20208;-68
2024/03/12 05:33:48;;;;;;;1.27;1.10;;;20.30;69.80;;;;;;4978679;28;20197;-68
2024/03/12 05:36:19;;;;;;;1.15;1.00;;;20.20;69.80;;;;;;4978930;28;20537;-68
2024/03/12 05:38:55;;;;;;;1.27;1.17;;;20.20;69.60;;;;;;4986019;28;20200;-68
2024/03/12 05:41:28;;;;;;;1.20;1.10;;;20.20;69.70;;;;;;4984975;28;20201;-68
2024/03/12 05:49:33;;;;;;;1.42;1.10;;;20.20;69.80;;;;;;4977265;28;20742;-68
2024/03/12 05:51:59;;;;;;;1.30;1.20;;;20.20;69.90;;;;;;4977229;28;20224;-68
2024/03/12 05:54:26;;;;;;;1.27;1.10;;;20.20;69.90;;;;;;4978403;28;20205;-68
2024/03/12 05:56:53;;;;;;;1.02;0.82;;;20.20;69.80;;;;;;4973100;28;20193;-68
2024/03/12 05:59:21;;;;;;;1.27;1.10;;;20.20;69.80;;;;;;4980929;28;20196;-67
2024/03/12 06:01:51;;;;;;;1.27;1.10;;;20.20;69.70;;;;;;4983921;28;20223;-67
2024/03/12 06:04:17;;;;;;;1.33;1.10;;;20.20;69.90;;;;;;4979390;28;20429;-67
2024/03/12 06:06:46;;;;;;;1.13;1.00;;;20.20;70.00;;;;;;4978368;28;20237;-68
2024/03/12 06:09:13;;;;;;;1.73;1.13;;;20.20;69.90;;;;;;4976412;28;20193;-68
2024/03/12 06:11:40;;;;;;;1.17;1.00;;;20.20;69.80;;;;;;4977945;28;20201;-68
2024/03/12 06:14:07;;;;;;;2.00;1.13;;;20.20;70.10;;;;;;4978773;28;20743;-68
2024/03/12 06:16:33;;;;;;;2.78;1.13;;;20.20;70.10;;;;;;4979752;28;20197;-67
2024/03/12 06:19:00;;;;;;;2.00;1.08;;;20.20;69.80;;;;;;4981051;28;20604;-68
2024/03/12 06:21:27;;;;;;;1.50;1.30;;;20.10;69.80;;;;;;4981288;28;20212;-67
2024/03/12 06:23:55;;;;;;;1.23;1.00;;;20.10;69.90;;;;;;4984127;28;20818;-68
2024/03/12 06:26:22;;;;;;;1.35;1.02;;;20.10;70.00;;;;;;4973176;28;20901;-67
2024/03/12 06:28:48;;;;;;;1.10;1.00;;;20.10;69.80;;;;;;4981707;28;20203;-67
2024/03/12 06:31:15;;;;;;;1.30;1.20;;;20.00;69.80;;;;;;4985506;28;20833;-68
2024/03/12 06:33:42;;;;;;;1.42;1.17;;;20.10;70.00;;;;;;4983416;28;20209;-68
2024/03/12 06:36:13;;;;;;;1.10;1.00;;;20.10;69.90;;;;;;4982520;28;20208;-68
2024/03/12 06:38:41;;;;;;;1.75;1.00;;;20.10;69.90;;;;;;4985554;28;20200;-67
2024/03/12 06:41:10;;;;;;;2.95;1.25;;;20.10;69.90;;;;;;4981206;28;20193;-67
2024/03/12 06:43:40;;;;;;;1.20;1.08;;;20.20;70.00;;;;;;4981969;28;20225;-67
2024/03/12 06:46:07;;;;;;;1.90;1.17;;;20.30;70.20;;;;;;4983970;28;20236;-67
2024/03/12 06:48:35;;;;;;;1.50;1.40;;;20.10;69.90;;;;;;4977894;28;20561;-67
2024/03/12 06:51:03;;;;;;;1.30;1.13;;;20.10;70.00;;;;;;4985017;28;20193;-67
2024/03/12 06:53:29;;;;;;;1.02;0.90;;;20.00;69.80;;;;;;4984085;28;20701;-67
2024/03/12 06:55:57;;;;;;;1.45;1.08;;;20.10;70.00;;;;;;4979679;28;20192;-68
2024/03/12 06:58:27;;;;;;;1.40;1.30;;;20.10;69.90;;;;;;4984613;28;20208;-71
2024/03/12 07:00:55;;;;;;;1.83;1.10;;;20.10;70.00;;;;;;4985220;28;20197;-71
2024/03/12 07:03:24;;;;;;;1.58;1.05;;;20.10;69.80;;;;;;4984397;28;20201;-71
2024/03/12 07:05:50;;;;;;;1.40;1.10;;;20.10;70.00;;;;;;4981553;28;20198;-70
2024/03/12 07:08:18;;;;;;;2.03;1.40;;;19.90;69.60;;;;;;4982533;28;20207;-70
2024/03/12 07:10:45;;;;;;;1.20;1.10;;;20.10;69.80;;;;;;4984439;28;20659;-70
2024/03/12 07:13:12;;;;;;;1.33;1.23;;;20.10;69.90;;;;;;4983123;28;20873;-69
2024/03/12 07:15:42;;;;;;;1.40;1.20;;;20.10;69.80;;;;;;4982265;28;20645;-70
2024/03/12 07:18:09;;;;;;;1.30;1.20;;;20.20;70.00;;;;;;4986155;28;20201;-69
2024/03/12 07:20:36;;;;;;;1.95;1.17;;;20.10;69.60;;;;;;4979509;28;20207;-69
2024/03/12 07:23:02;;;;;;;1.33;1.23;;;20.10;69.70;;;;;;4987112;28;20560;-71
2024/03/12 07:25:30;;;;;;;1.60;1.10;;;20.10;69.80;;;;;;4983450;28;20224;-67
2024/03/12 07:27:59;;;;;;;1.30;1.00;;;20.00;69.70;;;;;;4984808;28;20204;-70
2024/03/12 07:30:26;;;;;;;1.45;1.30;;;20.10;69.90;;;;;;4984303;28;20223;-70
2024/03/12 07:32:55;;;;;;;1.30;1.10;;;20.10;70.80;;;;;;4977864;28;20214;-71
2024/03/12 07:35:22;;;;;;;1.35;1.13;;;20.10;70.10;;;;;;4978185;28;20201;-63
2024/03/12 07:37:49;;;;;;;1.88;1.63;;;19.90;70.30;;;;;;4978676;28;20299;-66
2024/03/12 07:40:16;;;;;;;1.30;1.20;;;20.10;70.90;;;;;;4983489;28;20652;-66
2024/03/12 07:42:44;;;;;;;2.30;1.75;;;20.10;71.20;;;;;;4981788;28;20517;-66
2024/03/12 07:45:11;;;;;;;2.13;1.45;;;20.10;71.30;;;;;;4979179;28;20220;-65
2024/03/12 07:47:39;;;;;;;1.20;1.00;;;20.10;71.50;;;;;;4976551;28;20204;-65
2024/03/12 07:50:09;;;;;;;1.50;1.40;;;20.10;71.40;;;;;;4979752;28;20188;-66
2024/03/12 07:52:35;;;;;;;2.03;1.52;;;20.10;71.40;;;;;;4970495;28;20569;-66
2024/03/12 07:55:03;;;;;;;1.60;1.30;;;20.20;71.50;;;;;;4982531;28;20208;-66
2024/03/12 07:57:31;;;;;;;1.55;1.45;;;20.20;71.40;;;;;;4982230;28;20211;-66
2024/03/12 07:59:58;;;;;;;2.15;1.38;;;20.20;71.40;;;;;;4982914;28;20344;-66
2024/03/12 08:02:25;;;;;;;1.50;1.40;;;20.20;71.30;;;;;;4977027;28;20197;-66
2024/03/12 08:04:52;;;;;;;1.35;1.25;;;20.20;71.30;;;;;;4976980;28;21044;-66
2024/03/12 08:07:20;;;;;;;1.27;1.17;;;20.30;71.40;;;;;;4978484;28;20205;-66
2024/03/12 08:09:48;;;;;;;1.52;1.05;;;20.30;71.30;;;;;;4984513;28;20328;-66
2024/03/12 08:12:16;;;;;;;2.35;1.60;;;20.30;71.20;;;;;;4978019;28;20922;-66
2024/03/12 08:14:43;;;;;;;1.48;1.20;;;20.30;71.30;;;;;;4972604;28;20687;-67
2024/03/12 08:17:12;;;;;;;1.55;1.27;;;20.30;71.10;;;;;;4979987;28;20204;-67
2024/03/12 08:19:38;;;;;;;2.55;1.20;;;20.30;71.30;;;;;;4975853;28;20200;-73
2024/03/12 08:22:05;;;;;;;2.22;1.60;;;20.60;71.70;;;;;;4979554;28;20491;-68
2024/03/12 08:24:33;;;;;;;1.67;1.15;;;20.40;71.50;;;;;;4973491;28;20216;-69
2024/03/12 08:27:00;;;;;;;1.60;1.20;;;20.40;72.40;;;;;;4991797;28;20196;-68
2024/03/12 08:29:27;;;;;;;1.77;1.52;;;20.40;71.70;;;;;;4993537;28;20200;-68
2024/03/12 08:31:54;;;;;;;2.00;1.20;;;20.50;71.90;;;;;;4992559;28;20953;-67
2024/03/12 08:34:21;;;;;;;2.30;1.45;;;20.50;72.00;;;;;;4981107;28;20665;-69
2024/03/12 08:36:48;;;;;;;1.50;1.40;;;20.50;72.10;;;;;;4983671;28;20209;-68
2024/03/12 08:39:15;;;;;;;1.75;1.50;;;20.60;71.60;;;;;;4970702;28;20549;-64
2024/03/12 08:41:44;;;;;;;1.50;1.30;;;20.60;72.00;;;;;;4980191;28;20197;-64
2024/03/12 08:44:13;;;;;;;2.35;1.45;;;20.60;72.00;;;;;;4965774;28;21259;-63
2024/03/12 08:46:40;;;;;;;4.28;1.30;;;20.60;72.10;;;;;;4971875;28;20208;-64
2024/03/12 08:49:10;;;;;;;1.42;1.27;;;20.60;72.00;;;;;;4973500;28;20689;-64
2024/03/12 08:51:39;;;;;;;1.20;1.10;;;20.60;71.90;;;;;;4975016;28;20193;-64
2024/03/12 08:54:06;;;;;;;2.85;1.30;;;20.60;71.90;;;;;;4975045;28;20208;-64
2024/03/12 08:56:35;;;;;;;1.73;1.48;;;20.70;71.90;;;;;;4976671;28;20200;-64
2024/03/12 08:59:03;;;;;;;2.08;1.20;;;20.70;71.80;;;;;;4972077;28;20201;-64
2024/03/12 09:01:31;;;;;;;1.58;1.48;;;20.70;71.70;;;;;;4972980;28;20291;-64
2024/03/12 09:03:58;;;;;;;1.52;1.00;;;20.70;71.60;;;;;;4975689;28;20212;-64
2024/03/12 09:06:26;;;;;;;1.80;1.33;;;20.70;71.60;;;;;;4969610;28;20419;-64
2024/03/12 09:08:52;;;;;;;1.30;1.13;;;20.80;71.60;;;;;;4972318;28;20201;-63
2024/03/12 09:11:20;;;;;;;1.25;1.08;;;20.80;71.50;;;;;;4985678;28;20201;-64
2024/03/12 09:13:47;;;;;;;1.23;1.13;;;20.80;71.40;;;;;;4990306;28;20607;-64
2024/03/12 09:16:16;;;;;;;1.30;1.20;;;20.90;71.50;;;;;;4990545;28;20205;-64
2024/03/12 09:18:43;;;;;;;2.67;1.10;;;20.80;71.20;;;;;;4988071;28;20192;-63
2024/03/12 09:21:10;;;;;;;1.35;1.15;;;20.80;71.20;;;;;;4985832;28;20585;-64
2024/03/12 09:23:37;;;;;;;1.20;1.00;;;20.80;71.10;;;;;;4983488;28;20333;-64
2024/03/12 09:26:04;;;;;;;1.90;1.20;;;20.80;71.00;;;;;;4990344;28;20440;-64
2024/03/12 09:28:32;;;;;;;1.58;1.30;;;20.90;71.10;;;;;;4983217;28;20291;-64
2024/03/12 09:30:58;;;;;;;1.50;0.90;;;20.90;71.10;;;;;;4990721;28;20576;-63
2024/03/12 09:33:26;;;;;;;1.50;1.02;;;20.90;71.00;;;;;;4989678;28;20200;-64
2024/03/12 09:35:53;;;;;;;1.40;1.00;;;20.90;70.90;;;;;;4989382;28;20292;-64
2024/03/12 09:38:20;;;;;;;1.35;1.25;;;20.90;71.00;;;;;;4989803;28;20205;-63
2024/03/12 09:40:47;;;;;;;1.23;1.05;;;20.90;70.90;;;;;;4985138;28;20772;-63
2024/03/12 09:43:16;;;;;;;1.50;1.40;;;20.90;70.90;;;;;;4986440;28;20193;-64
2024/03/12 09:45:44;;;;;;;1.30;0.90;;;20.90;70.90;;;;;;4987124;28;20217;-64
2024/03/12 09:48:13;;;;;;;1.40;1.30;;;20.90;70.90;;;;;;4975321;28;20193;-64
2024/03/12 09:50:42;;;;;;;1.30;1.05;;;20.90;70.70;;;;;;4970807;28;20898;-64
2024/03/12 09:53:11;;;;;;;1.48;1.17;;;20.90;70.70;;;;;;4976137;28;20961;-63
2024/03/12 09:55:39;;;;;;;1.10;0.95;;;20.90;70.60;;;;;;4976431;28;20635;-64
2024/03/12 09:58:07;;;;;;;1.20;1.10;;;20.90;70.60;;;;;;4974780;28;20500;-64
2024/03/12 10:00:34;;;;;;;4.78;1.23;;;20.90;70.60;;;;;;4976808;28;20221;-64
2024/03/12 10:03:01;;;;;;;1.42;1.33;;;21.10;70.90;;;;;;4978499;28;20711;-64
2024/03/12 10:05:28;;;;;;;1.25;1.00;;;20.80;70.50;;;;;;4974140;28;20604;-65
2024/03/12 10:08:13;;;;;;;2.05;1.40;;;20.90;70.60;;;;;;4970730;28;20282;-65
2024/03/12 10:10:42;;;;;;;1.20;1.00;;;21.00;70.60;;;;;;4985418;28;20193;-64
2024/03/12 10:13:14;;;;;;;1.33;1.02;;;21.00;70.60;;;;;;4980849;28;20330;-64
2024/03/12 10:15:50;;;;;;;1.20;1.10;;;21.00;70.60;;;;;;4974940;28;20488;-64
2024/03/12 10:18:17;;;;;;;1.42;1.10;;;21.00;70.50;;;;;;4973439;28;20193;-65
2024/03/12 10:20:46;;;;;;;1.38;1.27;;;21.00;70.50;;;;;;4971590;28;20850;-64
2024/03/12 10:23:16;;;;;;;1.42;1.00;;;21.00;70.50;;;;;;4973062;28;20199;-63
2024/03/12 10:25:44;;;;;;;2.55;1.20;;;21.00;70.50;;;;;;4972044;28;20612;-64
2024/03/12 10:28:24;;;;;;;1.48;1.10;;;21.00;70.50;;;;;;5111057;27;20518;-63
2024/03/12 10:30:51;;;;;;;1.33;1.20;;;21.00;70.50;;;;;;5103266;27;20199;-63
2024/03/12 10:33:20;;;;;;;1.30;1.20;;;21.00;70.40;;;;;;5104132;27;20223;-64
2024/03/12 10:35:50;;;;;;;1.35;1.10;;;21.00;70.40;;;;;;5094567;27;20249;-63
2024/03/12 10:38:27;;;;;;;1.70;1.25;;;21.10;70.50;;;;;;5094579;27;20204;-63
2024/03/12 10:40:55;;;;;;;1.40;1.10;;;21.00;70.40;;;;;;5083715;27;20196;-63
2024/03/12 10:43:25;;;;;;;1.40;1.10;;;21.00;70.30;;;;;;5081839;27;21879;-64
2024/03/12 10:45:53;;;;;;;1.27;1.10;;;21.00;70.30;;;;;;5087649;27;21517;-63
2024/03/12 10:48:21;;;;;;;1.75;1.13;;;21.00;70.30;;;;;;5092671;27;20934;-64
2024/03/12 10:50:49;;;;;;;1.20;1.02;;;21.00;70.30;;;;;;5095190;27;20188;-64
2024/03/12 10:53:16;;;;;;;1.50;1.37;;;21.00;71.10;;;;;;5082579;27;20656;-63
2024/03/12 10:55:43;;;;;;;1.63;1.27;;;21.00;70.30;;;;;;5083553;27;20548;-66
2024/03/12 10:58:10;;;;;;;1.50;1.10;;;21.00;70.20;;;;;;5086442;27;20204;-65
2024/03/12 11:00:40;;;;;;;1.33;1.00;;;21.00;70.30;;;;;;5090707;27;20189;-64
2024/03/12 11:03:09;;;;;;;1.20;1.10;;;21.00;70.30;;;;;;5078428;27;20297;-64
2024/03/12 11:05:38;;;;;;;2.22;1.17;;;21.00;70.30;;;;;;5076957;27;20315;-64
2024/03/12 11:08:09;;;;;;;1.55;1.15;;;21.00;70.30;;;;;;5081150;27;20217;-63
2024/03/12 11:10:37;;;;;;;1.20;1.10;;;21.00;70.20;;;;;;5102374;27;20732;-64
2024/03/12 11:13:05;;;;;;;1.73;1.40;;;21.00;70.20;;;;;;5102656;28;20703;-63
2024/03/12 11:15:33;;;;;;;1.60;1.17;;;21.00;70.10;;;;;;5095252;27;20316;-63
2024/03/12 11:18:02;;;;;;;1.60;1.30;;;21.00;70.10;;;;;;5079450;27;20228;-63
2024/03/12 11:20:29;;;;;;;1.90;1.60;;;21.10;70.30;;;;;;5088068;27;20201;-63
2024/03/12 11:23:00;;;;;;;1.50;1.40;;;21.00;70.10;;;;;;5080496;27;20211;-64
2024/03/12 11:25:33;;;;;;;1.70;1.50;;;21.10;70.30;;;;;;5079959;27;20192;-64
2024/03/12 11:28:22;;;;;;;1.70;1.20;;;21.00;70.10;;;;;;5090987;28;20224;-63
2024/03/12 11:30:59;;;;;;;2.20;2.00;;;21.00;70.90;;;;;;5084908;27;20193;-63
2024/03/12 11:33:49;;;;;;;1.10;0.93;;;21.00;70.10;;;;;;5095394;27;20659;-64
2024/03/12 11:36:28;;;;;;;1.30;1.20;;;21.00;70.10;;;;;;5091936;27;20193;-64
2024/03/12 11:38:58;;;;;;;1.70;1.10;;;21.00;70.10;;;;;;5076837;27;20193;-63
2024/03/12 11:41:45;;;;;;;1.13;1.00;;;21.00;70.10;;;;;;5085776;28;20197;-63
2024/03/12 11:44:45;;;;;;;1.60;1.50;;;21.00;70.10;;;;;;5086079;28;20208;-63
2024/03/12 11:47:29;;;;;;;1.40;1.23;;;21.00;70.00;;;;;;5082038;28;20232;-64
2024/03/12 11:49:57;;;;;;;1.70;1.48;;;21.00;70.00;;;;;;5082946;28;20207;-62
2024/03/12 11:52:27;;;;;;;1.63;1.50;;;21.00;70.00;;;;;;5081309;28;20204;-63
2024/03/12 11:54:54;;;;;;;1.40;1.30;;;21.10;70.10;;;;;;5076974;28;20714;-63
2024/03/12 11:57:21;;;;;;;1.40;1.30;;;21.00;70.10;;;;;;5085617;28;20746;-63
2024/03/12 11:59:48;;;;;;;1.40;1.30;;;21.10;70.30;;;;;;5078640;28;20283;-63
2024/03/12 12:02:20;;;;;;;1.60;1.50;;;21.10;70.20;;;;;;5073197;28;20606;-63
2024/03/12 12:04:51;;;;;;;1.83;1.65;;;21.00;70.00;;;;;;5079597;28;20286;-63
2024/03/12 12:07:19;;;;;;;1.70;1.50;;;21.00;70.00;;;;;;5073659;28;24377;-63
2024/03/12 12:09:46;;;;;;;2.60;2.13;;;21.00;70.00;;;;;;5083934;28;20591;-63
2024/03/12 12:12:14;;;;;;;1.65;1.52;;;21.00;70.00;;;;;;5074403;28;20759;-63
2024/03/12 12:14:43;;;;;;;2.03;1.45;;;21.00;70.00;;;;;;5082508;28;20193;-64
2024/03/12 12:17:10;;;;;;;1.70;1.60;;;21.00;70.00;;;;;;5078519;28;20205;-64
2024/03/12 12:19:37;;;;;;;1.63;1.40;;;21.00;70.70;;;;;;5078337;28;20212;-63
2024/03/12 12:22:04;;;;;;;1.63;1.52;;;21.00;69.90;;;;;;5070005;27;20201;-63
2024/03/12 12:24:32;;;;;;;1.90;1.65;;;21.00;70.70;;;;;;5079859;28;20202;-63
2024/03/12 12:27:00;;;;;;;1.55;1.27;;;21.00;70.00;;;;;;5078141;28;21553;-64
2024/03/12 12:29:29;;;;;;;1.75;1.48;;;21.00;69.90;;;;;;5082359;28;20199;-63
2024/03/12 12:31:55;;;;;;;1.60;1.50;;;20.90;69.80;;;;;;5075234;28;20199;-64
2024/03/12 12:34:23;;;;;;;1.40;1.10;;;21.00;69.90;;;;;;5056398;28;20193;-63
2024/03/12 12:36:51;;;;;;;2.10;1.90;;;21.00;69.90;;;;;;5070879;28;20561;-63
2024/03/12 12:39:19;;;;;;;1.77;1.60;;;21.00;69.80;;;;;;5078881;28;20204;-63
2024/03/12 12:41:48;;;;;;;2.58;1.75;;;21.20;70.10;;;;;;5081536;28;20204;-63
2024/03/12 12:44:16;;;;;;;2.20;2.00;;;21.00;69.90;;;;;;5082553;28;20284;-63
2024/03/12 12:46:43;;;;;;;2.08;1.60;;;21.00;69.90;;;;;;5080800;28;20194;-63
2024/03/12 12:49:13;;;;;;;1.95;1.52;;;21.20;70.20;;;;;;5084624;28;20197;-63
2024/03/12 12:51:40;;;;;;;1.83;1.58;;;21.10;70.00;;;;;;5082922;28;20342;-63
2024/03/12 12:54:09;;;;;;;2.03;1.67;;;21.10;70.00;;;;;;5076879;27;20197;-62
2024/03/12 12:56:41;;;;;;;1.80;1.70;;;21.10;70.70;;;;;;5084108;28;20582;-64
2024/03/12 12:59:10;;;;;;;2.30;1.92;;;21.10;70.00;;;;;;5079155;28;20201;-68